sensor_id;sensor_type;location;lat;lon;timestamp;pressure;altitude;pressure_sealevel;temperature;humidity
78168;BME280;67410;42.698;23.378;2024-01-11T00:00:48;96608.31;;;-7.55;84.00
78168;BME280;67410;42.698;23.378;2024-01-11T00:03:15;96582.13;;;-7.76;84.58
78168;BME280;67410;42.698;23.378;2024-01-11T00:05:42;96601.41;;;-7.53;83.38
78168;BME280;67410;42.698;23.378;2024-01-11T00:08:08;96602.28;;;-7.54;82.71
78168;BME280;67410;42.698;23.378;2024-01-11T00:10:36;96595.88;;;-7.78;84.29
78168;BME280;67410;42.698;23.378;2024-01-11T00:13:02;96595.34;;;-7.85;85.40
78168;BME280;67410;42.698;23.378;2024-01-11T00:15:29;96594.97;;;-7.77;86.08
78168;BME280;67410;42.698;23.378;2024-01-11T00:17:55;96593.88;;;-7.56;84.62
78168;BME280;67410;42.698;23.378;2024-01-11T00:20:21;96591.56;;;-7.61;84.10
78168;BME280;67410;42.698;23.378;2024-01-11T00:22:48;96584.28;;;-7.68;83.49
78168;BME280;67410;42.698;23.378;2024-01-11T00:25:14;96581.31;;;-8.11;84.99
78168;BME280;67410;42.698;23.378;2024-01-11T00:27:40;96582.59;;;-8.02;85.27
78168;BME280;67410;42.698;23.378;2024-01-11T00:30:07;96586.56;;;-7.79;84.97
78168;BME280;67410;42.698;23.378;2024-01-11T00:32:33;96581.75;;;-7.86;84.48
78168;BME280;67410;42.698;23.378;2024-01-11T00:34:59;96584.91;;;-7.80;84.24
78168;BME280;67410;42.698;23.378;2024-01-11T00:37:25;96573.47;;;-7.73;83.77
78168;BME280;67410;42.698;23.378;2024-01-11T00:39:51;96586.72;;;-7.82;83.43
78168;BME280;67410;42.698;23.378;2024-01-11T00:42:18;96584.16;;;-7.82;83.32
78168;BME280;67410;42.698;23.378;2024-01-11T00:44:44;96576.59;;;-8.01;83.86
78168;BME280;67410;42.698;23.378;2024-01-11T00:47:11;96568.78;;;-8.15;84.39
78168;BME280;67410;42.698;23.378;2024-01-11T00:49:37;96581.31;;;-7.94;84.68
78168;BME280;67410;42.698;23.378;2024-01-11T00:52:03;96574.69;;;-7.80;84.15
78168;BME280;67410;42.698;23.378;2024-01-11T00:54:29;96583.13;;;-7.63;83.36
78168;BME280;67410;42.698;23.378;2024-01-11T00:56:56;96570.88;;;-7.56;82.71
78168;BME280;67410;42.698;23.378;2024-01-11T00:59:22;96562.19;;;-7.69;82.78
78168;BME280;67410;42.698;23.378;2024-01-11T01:01:48;96569.50;;;-7.79;83.14
78168;BME280;67410;42.698;23.378;2024-01-11T01:04:14;96562.72;;;-7.80;83.33
78168;BME280;67410;42.698;23.378;2024-01-11T01:06:41;96565.22;;;-7.78;83.21
78168;BME280;67410;42.698;23.378;2024-01-11T01:09:08;96567.84;;;-7.80;83.42
78168;BME280;67410;42.698;23.378;2024-01-11T01:11:34;96565.28;;;-7.80;83.51
78168;BME280;67410;42.698;23.378;2024-01-11T01:14:00;96558.97;;;-7.90;81.62
78168;BME280;67410;42.698;23.378;2024-01-11T01:16:26;96552.69;;;-8.00;81.57
78168;BME280;67410;42.698;23.378;2024-01-11T01:18:52;96557.34;;;-8.08;81.89
78168;BME280;67410;42.698;23.378;2024-01-11T01:21:18;96569.97;;;-8.05;82.55
78168;BME280;67410;42.698;23.378;2024-01-11T01:23:44;96567.28;;;-8.02;82.36
78168;BME280;67410;42.698;23.378;2024-01-11T01:26:10;96561.44;;;-8.22;83.71
78168;BME280;67410;42.698;23.378;2024-01-11T01:28:36;96557.31;;;-8.24;84.08
78168;BME280;67410;42.698;23.378;2024-01-11T01:31:03;96563.88;;;-8.20;83.88
78168;BME280;67410;42.698;23.378;2024-01-11T01:33:29;96556.44;;;-8.07;82.99
78168;BME280;67410;42.698;23.378;2024-01-11T01:35:55;96565.91;;;-8.09;82.79
78168;BME280;67410;42.698;23.378;2024-01-11T01:38:21;96556.16;;;-8.01;81.90
78168;BME280;67410;42.698;23.378;2024-01-11T01:40:47;96558.69;;;-8.19;83.00
78168;BME280;67410;42.698;23.378;2024-01-11T01:43:13;96545.72;;;-8.14;83.33
78168;BME280;67410;42.698;23.378;2024-01-11T01:45:39;96542.19;;;-8.29;84.14
78168;BME280;67410;42.698;23.378;2024-01-11T01:48:06;96546.09;;;-8.22;83.86
78168;BME280;67410;42.698;23.378;2024-01-11T01:50:33;96537.00;;;-8.27;84.61
78168;BME280;67410;42.698;23.378;2024-01-11T01:52:59;96542.31;;;-8.14;84.85
78168;BME280;67410;42.698;23.378;2024-01-11T01:55:26;96536.94;;;-8.26;84.03
78168;BME280;67410;42.698;23.378;2024-01-11T01:57:54;96538.16;;;-8.33;83.29
78168;BME280;67410;42.698;23.378;2024-01-11T02:00:21;96528.47;;;-8.43;83.29
78168;BME280;67410;42.698;23.378;2024-01-11T02:02:50;96526.66;;;-8.41;83.75
78168;BME280;67410;42.698;23.378;2024-01-11T02:05:18;96526.16;;;-8.48;83.27
78168;BME280;67410;42.698;23.378;2024-01-11T02:07:44;96514.81;;;-8.60;83.64
78168;BME280;67410;42.698;23.378;2024-01-11T02:10:10;96508.66;;;-8.56;83.71
78168;BME280;67410;42.698;23.378;2024-01-11T02:12:36;96523.38;;;-8.43;82.98
78168;BME280;67410;42.698;23.378;2024-01-11T02:15:05;96519.84;;;-8.41;82.45
78168;BME280;67410;42.698;23.378;2024-01-11T02:17:32;96507.47;;;-8.48;82.69
78168;BME280;67410;42.698;23.378;2024-01-11T02:19:59;96511.44;;;-8.43;83.18
78168;BME280;67410;42.698;23.378;2024-01-11T02:22:36;96505.72;;;-8.65;83.23
78168;BME280;67410;42.698;23.378;2024-01-11T02:25:04;96509.56;;;-8.57;83.38
78168;BME280;67410;42.698;23.378;2024-01-11T02:27:30;96511.28;;;-8.57;83.81
78168;BME280;67410;42.698;23.378;2024-01-11T02:29:56;96513.69;;;-8.54;84.03
78168;BME280;67410;42.698;23.378;2024-01-11T02:32:22;96508.59;;;-8.54;83.96
78168;BME280;67410;42.698;23.378;2024-01-11T02:34:49;96510.31;;;-8.55;83.66
78168;BME280;67410;42.698;23.378;2024-01-11T02:37:17;96510.38;;;-8.56;82.94
78168;BME280;67410;42.698;23.378;2024-01-11T02:39:44;96512.25;;;-8.60;82.74
78168;BME280;67410;42.698;23.378;2024-01-11T02:42:10;96512.63;;;-8.67;82.68
78168;BME280;67410;42.698;23.378;2024-01-11T02:44:36;96510.44;;;-8.75;82.77
78168;BME280;67410;42.698;23.378;2024-01-11T02:47:02;96508.72;;;-8.74;82.75
78168;BME280;67410;42.698;23.378;2024-01-11T02:49:29;96506.78;;;-8.69;83.35
78168;BME280;67410;42.698;23.378;2024-01-11T02:51:55;96499.13;;;-8.69;83.02
78168;BME280;67410;42.698;23.378;2024-01-11T02:54:21;96500.84;;;-8.70;83.29
78168;BME280;67410;42.698;23.378;2024-01-11T02:56:47;96496.13;;;-8.77;83.51
78168;BME280;67410;42.698;23.378;2024-01-11T02:59:13;96501.97;;;-8.75;83.79
78168;BME280;67410;42.698;23.378;2024-01-11T03:01:39;96499.19;;;-8.71;84.23
78168;BME280;67410;42.698;23.378;2024-01-11T03:04:05;96499.19;;;-8.71;84.04
78168;BME280;67410;42.698;23.378;2024-01-11T03:06:32;96494.19;;;-8.55;83.28
78168;BME280;67410;42.698;23.378;2024-01-11T03:08:58;96499.88;;;-8.67;83.25
78168;BME280;67410;42.698;23.378;2024-01-11T03:11:24;96500.97;;;-8.73;83.48
78168;BME280;67410;42.698;23.378;2024-01-11T03:13:50;96494.06;;;-8.71;83.75
78168;BME280;67410;42.698;23.378;2024-01-11T03:16:16;96495.88;;;-8.73;83.67
78168;BME280;67410;42.698;23.378;2024-01-11T03:18:42;96483.81;;;-8.86;83.40
78168;BME280;67410;42.698;23.378;2024-01-11T03:21:08;96488.06;;;-8.87;83.76
78168;BME280;67410;42.698;23.378;2024-01-11T03:23:34;96489.44;;;-8.80;83.90
78168;BME280;67410;42.698;23.378;2024-01-11T03:26:00;96493.31;;;-8.73;82.68
78168;BME280;67410;42.698;23.378;2024-01-11T03:28:26;96496.78;;;-8.74;82.14
78168;BME280;67410;42.698;23.378;2024-01-11T03:30:52;96494.63;;;-8.81;82.52
78168;BME280;67410;42.698;23.378;2024-01-11T03:33:19;96498.97;;;-8.83;82.55
78168;BME280;67410;42.698;23.378;2024-01-11T03:35:45;96493.78;;;-8.82;82.57
78168;BME280;67410;42.698;23.378;2024-01-11T03:38:11;96487.19;;;-8.86;82.84
78168;BME280;67410;42.698;23.378;2024-01-11T03:40:37;96488.06;;;-8.87;83.43
78168;BME280;67410;42.698;23.378;2024-01-11T03:43:04;96489.03;;;-8.90;83.75
78168;BME280;67410;42.698;23.378;2024-01-11T03:45:30;96486.34;;;-8.86;84.60
78168;BME280;67410;42.698;23.378;2024-01-11T03:47:56;96488.00;;;-8.85;84.66
78168;BME280;67410;42.698;23.378;2024-01-11T03:50:22;96480.88;;;-8.79;83.66
78168;BME280;67410;42.698;23.378;2024-01-11T03:52:48;96482.69;;;-8.81;82.45
78168;BME280;67410;42.698;23.378;2024-01-11T03:55:14;96469.38;;;-9.05;82.33
78168;BME280;67410;42.698;23.378;2024-01-11T03:57:40;96472.69;;;-9.03;82.66
78168;BME280;67410;42.698;23.378;2024-01-11T04:00:08;96477.69;;;-9.18;83.18
78168;BME280;67410;42.698;23.378;2024-01-11T04:02:35;96476.78;;;-9.00;83.30
78168;BME280;67410;42.698;23.378;2024-01-11T04:05:01;96464.91;;;-9.18;83.37
78168;BME280;67410;42.698;23.378;2024-01-11T04:07:27;96466.56;;;-9.17;83.31
78168;BME280;67410;42.698;23.378;2024-01-11T04:09:53;96473.25;;;-9.15;83.75
78168;BME280;67410;42.698;23.378;2024-01-11T04:12:19;96482.78;;;-9.18;83.97
78168;BME280;67410;42.698;23.378;2024-01-11T04:14:46;96473.69;;;-9.24;84.00
78168;BME280;67410;42.698;23.378;2024-01-11T04:17:12;96467.00;;;-9.27;83.73
78168;BME280;67410;42.698;23.378;2024-01-11T04:19:39;96461.25;;;-9.30;84.41
78168;BME280;67410;42.698;23.378;2024-01-11T04:22:05;96463.28;;;-9.19;84.26
78168;BME280;67410;42.698;23.378;2024-01-11T04:24:31;96466.41;;;-9.32;83.73
78168;BME280;67410;42.698;23.378;2024-01-11T04:26:57;96462.38;;;-9.18;84.13
78168;BME280;67410;42.698;23.378;2024-01-11T04:29:24;96457.41;;;-9.22;83.99
78168;BME280;67410;42.698;23.378;2024-01-11T04:31:50;96454.03;;;-9.22;83.91
78168;BME280;67410;42.698;23.378;2024-01-11T04:34:16;96458.84;;;-9.16;83.10
78168;BME280;67410;42.698;23.378;2024-01-11T04:36:42;96456.94;;;-9.30;83.74
78168;BME280;67410;42.698;23.378;2024-01-11T04:39:08;96465.78;;;-9.37;84.19
78168;BME280;67410;42.698;23.378;2024-01-11T04:41:38;96462.66;;;-9.25;83.59
78168;BME280;67410;42.698;23.378;2024-01-11T04:44:05;96462.50;;;-9.22;83.04
78168;BME280;67410;42.698;23.378;2024-01-11T04:46:31;96466.94;;;-9.25;83.25
78168;BME280;67410;42.698;23.378;2024-01-11T04:48:57;96465.88;;;-9.21;82.95
78168;BME280;67410;42.698;23.378;2024-01-11T04:51:23;96464.72;;;-9.14;83.00
78168;BME280;67410;42.698;23.378;2024-01-11T04:53:49;96449.00;;;-9.24;82.86
78168;BME280;67410;42.698;23.378;2024-01-11T04:56:16;96473.03;;;-9.10;83.39
78168;BME280;67410;42.698;23.378;2024-01-11T04:58:44;96467.41;;;-9.17;82.94
78168;BME280;67410;42.698;23.378;2024-01-11T05:01:16;96473.75;;;-9.26;83.60
78168;BME280;67410;42.698;23.378;2024-01-11T05:03:43;96464.69;;;-9.31;83.98
78168;BME280;67410;42.698;23.378;2024-01-11T05:06:17;96470.31;;;-9.25;84.21
78168;BME280;67410;42.698;23.378;2024-01-11T05:08:44;96475.47;;;-9.26;83.93
78168;BME280;67410;42.698;23.378;2024-01-11T05:11:17;96471.97;;;-9.24;84.52
78168;BME280;67410;42.698;23.378;2024-01-11T05:13:43;96468.66;;;-9.26;84.63
78168;BME280;67410;42.698;23.378;2024-01-11T05:18:43;96461.53;;;-9.19;85.05
78168;BME280;67410;42.698;23.378;2024-01-11T05:21:09;96463.19;;;-9.18;85.17
78168;BME280;67410;42.698;23.378;2024-01-11T05:23:35;96460.66;;;-9.18;84.91
78168;BME280;67410;42.698;23.378;2024-01-11T05:26:03;96455.63;;;-9.19;84.75
78168;BME280;67410;42.698;23.378;2024-01-11T05:28:29;96456.03;;;-9.10;84.92
78168;BME280;67410;42.698;23.378;2024-01-11T05:30:55;96445.22;;;-9.15;85.19
78168;BME280;67410;42.698;23.378;2024-01-11T05:33:21;96441.91;;;-9.17;85.10
78168;BME280;67410;42.698;23.378;2024-01-11T05:35:47;96439.22;;;-9.14;84.91
78168;BME280;67410;42.698;23.378;2024-01-11T05:38:13;96440.72;;;-9.10;85.21
78168;BME280;67410;42.698;23.378;2024-01-11T05:40:39;96447.91;;;-9.01;85.10
78168;BME280;67410;42.698;23.378;2024-01-11T05:43:06;96439.06;;;-8.94;85.02
78168;BME280;67410;42.698;23.378;2024-01-11T05:45:32;96444.63;;;-8.85;84.83
78168;BME280;67410;42.698;23.378;2024-01-11T05:47:59;96434.22;;;-8.81;85.27
78168;BME280;67410;42.698;23.378;2024-01-11T05:50:26;96430.53;;;-8.75;85.40
78168;BME280;67410;42.698;23.378;2024-01-11T05:52:52;96426.00;;;-8.70;85.67
78168;BME280;67410;42.698;23.378;2024-01-11T05:55:19;96432.91;;;-8.72;86.12
78168;BME280;67410;42.698;23.378;2024-01-11T05:57:46;96429.16;;;-8.48;85.71
78168;BME280;67410;42.698;23.378;2024-01-11T06:00:12;96427.06;;;-8.57;85.83
78168;BME280;67410;42.698;23.378;2024-01-11T06:02:38;96432.53;;;-8.65;85.64
78168;BME280;67410;42.698;23.378;2024-01-11T06:05:07;96419.09;;;-8.68;85.65
78168;BME280;67410;42.698;23.378;2024-01-11T06:07:33;96432.38;;;-8.62;85.18
78168;BME280;67410;42.698;23.378;2024-01-11T06:10:00;96421.72;;;-8.52;84.82
78168;BME280;67410;42.698;23.378;2024-01-11T06:12:28;96418.59;;;-8.42;83.89
78168;BME280;67410;42.698;23.378;2024-01-11T06:14:55;96413.94;;;-8.34;82.80
78168;BME280;67410;42.698;23.378;2024-01-11T06:17:21;96429.19;;;-8.32;83.26
78168;BME280;67410;42.698;23.378;2024-01-11T06:19:47;96420.91;;;-8.04;83.31
78168;BME280;67410;42.698;23.378;2024-01-11T06:22:13;96428.09;;;-7.64;82.17
78168;BME280;67410;42.698;23.378;2024-01-11T06:24:39;96417.84;;;-7.17;80.08
78168;BME280;67410;42.698;23.378;2024-01-11T06:27:05;96426.53;;;-6.89;78.61
78168;BME280;67410;42.698;23.378;2024-01-11T06:29:31;96409.41;;;-6.44;77.48
78168;BME280;67410;42.698;23.378;2024-01-11T06:31:57;96407.75;;;-5.89;74.39
78168;BME280;67410;42.698;23.378;2024-01-11T06:34:23;96408.81;;;-5.37;72.15
78168;BME280;67410;42.698;23.378;2024-01-11T06:36:50;96409.22;;;-4.64;69.33
78168;BME280;67410;42.698;23.378;2024-01-11T06:39:17;96407.56;;;-3.77;67.18
78168;BME280;67410;42.698;23.378;2024-01-11T06:41:43;96403.56;;;-3.08;65.14
78168;BME280;67410;42.698;23.378;2024-01-11T06:44:09;96400.09;;;-2.60;62.08
78168;BME280;67410;42.698;23.378;2024-01-11T06:46:35;96406.44;;;-2.88;60.87
78168;BME280;67410;42.698;23.378;2024-01-11T06:49:02;96406.22;;;-2.50;60.56
78168;BME280;67410;42.698;23.378;2024-01-11T06:51:28;96405.69;;;-2.20;61.04
78168;BME280;67410;42.698;23.378;2024-01-11T06:53:54;96402.50;;;-2.13;59.33
78168;BME280;67410;42.698;23.378;2024-01-11T06:56:20;96406.34;;;-1.29;58.19
78168;BME280;67410;42.698;23.378;2024-01-11T06:58:46;96395.66;;;-0.40;55.00
78168;BME280;67410;42.698;23.378;2024-01-11T07:01:13;96402.31;;;0.35;54.13
78168;BME280;67410;42.698;23.378;2024-01-11T07:03:39;96405.78;;;1.05;52.28
78168;BME280;67410;42.698;23.378;2024-01-11T07:06:06;96401.13;;;1.37;49.69
78168;BME280;67410;42.698;23.378;2024-01-11T07:08:32;96400.22;;;0.29;52.80
78168;BME280;67410;42.698;23.378;2024-01-11T07:11:02;96408.75;;;1.00;51.08
78168;BME280;67410;42.698;23.378;2024-01-11T07:13:31;96396.13;;;2.01;47.78
78168;BME280;67410;42.698;23.378;2024-01-11T07:15:58;96400.00;;;2.34;47.05
78168;BME280;67410;42.698;23.378;2024-01-11T07:18:25;96399.19;;;2.24;46.75
78168;BME280;67410;42.698;23.378;2024-01-11T07:20:52;96394.22;;;3.13;44.56
78168;BME280;67410;42.698;23.378;2024-01-11T07:23:18;96397.41;;;2.89;43.85
78168;BME280;67410;42.698;23.378;2024-01-11T07:25:45;96392.78;;;2.56;45.45
78168;BME280;67410;42.698;23.378;2024-01-11T07:28:11;96389.19;;;2.84;43.64
78168;BME280;67410;42.698;23.378;2024-01-11T07:30:37;96390.44;;;2.62;44.31
78168;BME280;67410;42.698;23.378;2024-01-11T07:33:03;96381.81;;;1.88;45.19
78168;BME280;67410;42.698;23.378;2024-01-11T07:35:30;96392.53;;;0.98;47.68
78168;BME280;67410;42.698;23.378;2024-01-11T07:37:57;96392.56;;;1.37;46.85
78168;BME280;67410;42.698;23.378;2024-01-11T07:40:23;96394.59;;;1.62;46.96
78168;BME280;67410;42.698;23.378;2024-01-11T07:42:49;96393.06;;;1.59;46.72
78168;BME280;67410;42.698;23.378;2024-01-11T07:45:15;96390.63;;;1.58;47.28
78168;BME280;67410;42.698;23.378;2024-01-11T07:47:42;96385.09;;;2.82;45.37
78168;BME280;67410;42.698;23.378;2024-01-11T07:50:09;96390.00;;;2.40;45.22
78168;BME280;67410;42.698;23.378;2024-01-11T07:52:36;96391.22;;;1.98;44.84
78168;BME280;67410;42.698;23.378;2024-01-11T07:55:03;96384.16;;;1.81;47.36
78168;BME280;67410;42.698;23.378;2024-01-11T07:57:38;96383.66;;;1.00;48.48
78168;BME280;67410;42.698;23.378;2024-01-11T08:00:05;96387.34;;;0.39;49.35
78168;BME280;67410;42.698;23.378;2024-01-11T08:02:34;96383.34;;;0.84;48.98
78168;BME280;67410;42.698;23.378;2024-01-11T08:05:01;96385.53;;;0.89;49.87
78168;BME280;67410;42.698;23.378;2024-01-11T08:07:27;96375.56;;;0.75;48.46
78168;BME280;67410;42.698;23.378;2024-01-11T08:09:54;96371.81;;;0.48;48.80
78168;BME280;67410;42.698;23.378;2024-01-11T08:12:20;96379.00;;;1.43;49.43
78168;BME280;67410;42.698;23.378;2024-01-11T08:14:46;96370.72;;;1.95;47.29
78168;BME280;67410;42.698;23.378;2024-01-11T08:17:13;96366.72;;;2.11;45.95
78168;BME280;67410;42.698;23.378;2024-01-11T08:19:40;96362.84;;;1.78;46.87
78168;BME280;67410;42.698;23.378;2024-01-11T08:22:09;96373.44;;;2.68;44.82
78168;BME280;67410;42.698;23.378;2024-01-11T08:24:36;96360.44;;;2.41;45.91
78168;BME280;67410;42.698;23.378;2024-01-11T08:27:02;96369.59;;;2.72;44.13
78168;BME280;67410;42.698;23.378;2024-01-11T08:29:29;96354.44;;;2.40;46.79
78168;BME280;67410;42.698;23.378;2024-01-11T08:31:55;96362.47;;;3.10;45.70
78168;BME280;67410;42.698;23.378;2024-01-11T08:34:22;96365.25;;;3.26;44.33
78168;BME280;67410;42.698;23.378;2024-01-11T08:36:49;96366.75;;;2.38;45.76
78168;BME280;67410;42.698;23.378;2024-01-11T08:39:15;96357.06;;;3.21;45.49
78168;BME280;67410;42.698;23.378;2024-01-11T08:41:42;96354.28;;;4.10;43.09
78168;BME280;67410;42.698;23.378;2024-01-11T08:44:08;96357.88;;;4.17;42.21
78168;BME280;67410;42.698;23.378;2024-01-11T08:46:34;96356.91;;;4.52;41.22
78168;BME280;67410;42.698;23.378;2024-01-11T08:49:01;96353.50;;;5.09;41.29
78168;BME280;67410;42.698;23.378;2024-01-11T08:51:29;96355.78;;;5.29;39.58
78168;BME280;67410;42.698;23.378;2024-01-11T08:53:55;96348.31;;;5.34;40.37
78168;BME280;67410;42.698;23.378;2024-01-11T08:56:22;96348.97;;;4.61;42.46
78168;BME280;67410;42.698;23.378;2024-01-11T08:58:48;96341.44;;;5.17;39.98
78168;BME280;67410;42.698;23.378;2024-01-11T09:01:15;96332.16;;;5.47;40.86
78168;BME280;67410;42.698;23.378;2024-01-11T09:03:42;96334.13;;;5.44;40.21
78168;BME280;67410;42.698;23.378;2024-01-11T09:06:08;96339.13;;;4.89;40.38
78168;BME280;67410;42.698;23.378;2024-01-11T09:08:34;96317.44;;;5.29;40.98
78168;BME280;67410;42.698;23.378;2024-01-11T09:11:00;96316.63;;;5.04;40.14
78168;BME280;67410;42.698;23.378;2024-01-11T09:13:28;96317.03;;;3.39;43.34
78168;BME280;67410;42.698;23.378;2024-01-11T09:15:54;96313.38;;;5.19;41.30
78168;BME280;67410;42.698;23.378;2024-01-11T09:18:21;96310.31;;;4.15;44.39
78168;BME280;67410;42.698;23.378;2024-01-11T09:20:47;96306.66;;;5.57;40.18
78168;BME280;67410;42.698;23.378;2024-01-11T09:23:14;96306.19;;;5.04;41.88
78168;BME280;67410;42.698;23.378;2024-01-11T09:25:41;96293.47;;;5.42;40.07
78168;BME280;67410;42.698;23.378;2024-01-11T09:28:07;96302.69;;;4.71;40.75
78168;BME280;67410;42.698;23.378;2024-01-11T09:30:33;96291.81;;;5.00;42.21
78168;BME280;67410;42.698;23.378;2024-01-11T09:32:59;96291.31;;;5.54;40.31
78168;BME280;67410;42.698;23.378;2024-01-11T09:35:25;96287.56;;;5.48;39.49
78168;BME280;67410;42.698;23.378;2024-01-11T09:37:52;96279.75;;;5.32;41.05
78168;BME280;67410;42.698;23.378;2024-01-11T09:40:18;96272.22;;;5.69;40.69
78168;BME280;67410;42.698;23.378;2024-01-11T09:42:44;96273.72;;;5.07;39.52
78168;BME280;67410;42.698;23.378;2024-01-11T09:45:15;96268.00;;;4.95;40.56
78168;BME280;67410;42.698;23.378;2024-01-11T09:47:43;96253.97;;;5.21;40.83
78168;BME280;67410;42.698;23.378;2024-01-11T09:50:11;96251.19;;;3.73;45.11
78168;BME280;67410;42.698;23.378;2024-01-11T09:52:52;96244.84;;;5.25;41.90
78168;BME280;67410;42.698;23.378;2024-01-11T09:55:19;96249.16;;;4.35;42.00
78168;BME280;67410;42.698;23.378;2024-01-11T09:57:51;96241.44;;;3.75;44.45
78168;BME280;67410;42.698;23.378;2024-01-11T10:00:21;96234.84;;;3.63;44.19
78168;BME280;67410;42.698;23.378;2024-01-11T10:02:48;96237.28;;;3.64;43.83
78168;BME280;67410;42.698;23.378;2024-01-11T10:05:16;96229.09;;;3.85;43.42
78168;BME280;67410;42.698;23.378;2024-01-11T10:07:43;96226.41;;;4.11;43.76
78168;BME280;67410;42.698;23.378;2024-01-11T10:10:09;96221.94;;;3.87;44.05
78168;BME280;67410;42.698;23.378;2024-01-11T10:12:36;96215.34;;;3.67;45.57
78168;BME280;67410;42.698;23.378;2024-01-11T10:15:06;96204.97;;;3.83;45.93
78168;BME280;67410;42.698;23.378;2024-01-11T10:17:42;96207.31;;;4.77;43.74
78168;BME280;67410;42.698;23.378;2024-01-11T10:20:13;96196.38;;;4.49;44.35
78168;BME280;67410;42.698;23.378;2024-01-11T10:22:40;96189.88;;;4.78;43.87
78168;BME280;67410;42.698;23.378;2024-01-11T10:27:35;96190.00;;;5.33;43.40
78168;BME280;67410;42.698;23.378;2024-01-11T10:30:01;96186.13;;;4.72;42.90
78168;BME280;67410;42.698;23.378;2024-01-11T10:32:30;96178.09;;;5.22;43.51
78168;BME280;67410;42.698;23.378;2024-01-11T10:35:01;96168.84;;;4.95;42.47
78168;BME280;67410;42.698;23.378;2024-01-11T10:37:32;96168.38;;;5.63;44.85
78168;BME280;67410;42.698;23.378;2024-01-11T10:40:05;96160.47;;;5.32;44.76
78168;BME280;67410;42.698;23.378;2024-01-11T10:42:45;96161.63;;;6.16;41.28
78168;BME280;67410;42.698;23.378;2024-01-11T10:45:17;96152.31;;;6.67;40.40
78168;BME280;67410;42.698;23.378;2024-01-11T10:48:01;96150.84;;;5.25;41.70
78168;BME280;67410;42.698;23.378;2024-01-11T10:50:36;96149.91;;;5.01;42.53
78168;BME280;67410;42.698;23.378;2024-01-11T10:55:35;96135.91;;;4.78;43.56
78168;BME280;67410;42.698;23.378;2024-01-11T10:58:03;96132.16;;;3.65;45.37
78168;BME280;67410;42.698;23.378;2024-01-11T11:00:31;96124.91;;;3.93;45.29
78168;BME280;67410;42.698;23.378;2024-01-11T11:02:59;96119.25;;;3.98;46.27
78168;BME280;67410;42.698;23.378;2024-01-11T11:05:28;96117.84;;;4.36;44.94
78168;BME280;67410;42.698;23.378;2024-01-11T11:07:56;96108.69;;;4.81;44.56
78168;BME280;67410;42.698;23.378;2024-01-11T11:10:22;96097.09;;;4.91;43.23
78168;BME280;67410;42.698;23.378;2024-01-11T11:12:48;96092.81;;;5.06;43.57
78168;BME280;67410;42.698;23.378;2024-01-11T11:15:15;96087.44;;;5.08;42.32
78168;BME280;67410;42.698;23.378;2024-01-11T11:17:42;96079.59;;;5.08;43.97
78168;BME280;67410;42.698;23.378;2024-01-11T11:20:10;96077.66;;;5.10;43.47
78168;BME280;67410;42.698;23.378;2024-01-11T11:22:40;96067.75;;;4.81;43.50
78168;BME280;67410;42.698;23.378;2024-01-11T11:25:10;96065.34;;;5.27;43.33
78168;BME280;67410;42.698;23.378;2024-01-11T11:27:37;96060.25;;;5.41;43.40
78168;BME280;67410;42.698;23.378;2024-01-11T11:30:03;96050.22;;;5.53;43.36
78168;BME280;67410;42.698;23.378;2024-01-11T11:32:38;96047.59;;;6.15;41.91
78168;BME280;67410;42.698;23.378;2024-01-11T11:35:05;96044.28;;;5.98;41.08
78168;BME280;67410;42.698;23.378;2024-01-11T11:37:31;96035.31;;;6.38;41.08
78168;BME280;67410;42.698;23.378;2024-01-11T11:39:58;96035.56;;;6.29;42.01
78168;BME280;67410;42.698;23.378;2024-01-11T11:42:25;96023.25;;;6.15;42.01
78168;BME280;67410;42.698;23.378;2024-01-11T11:44:51;96029.44;;;6.36;41.63
78168;BME280;67410;42.698;23.378;2024-01-11T11:47:21;96027.03;;;5.89;41.72
78168;BME280;67410;42.698;23.378;2024-01-11T11:50:08;96023.31;;;5.75;42.92
78168;BME280;67410;42.698;23.378;2024-01-11T11:52:40;96022.38;;;5.46;43.62
78168;BME280;67410;42.698;23.378;2024-01-11T11:55:08;96020.25;;;4.94;43.89
78168;BME280;67410;42.698;23.378;2024-01-11T11:57:35;96012.75;;;4.99;44.30
78168;BME280;67410;42.698;23.378;2024-01-11T12:00:02;96007.50;;;5.07;44.85
78168;BME280;67410;42.698;23.378;2024-01-11T12:02:31;95998.28;;;5.27;45.24
78168;BME280;67410;42.698;23.378;2024-01-11T12:04:57;95991.59;;;5.56;43.28
78168;BME280;67410;42.698;23.378;2024-01-11T12:07:24;95988.88;;;5.18;43.85
78168;BME280;67410;42.698;23.378;2024-01-11T12:09:53;95991.00;;;4.67;45.97
78168;BME280;67410;42.698;23.378;2024-01-11T12:12:19;95977.22;;;4.26;46.23
78168;BME280;67410;42.698;23.378;2024-01-11T12:14:47;95979.78;;;4.51;47.90
78168;BME280;67410;42.698;23.378;2024-01-11T12:17:15;95970.50;;;4.64;46.18
78168;BME280;67410;42.698;23.378;2024-01-11T12:19:42;95963.97;;;4.60;45.96
78168;BME280;67410;42.698;23.378;2024-01-11T12:22:09;95964.91;;;4.75;46.82
78168;BME280;67410;42.698;23.378;2024-01-11T12:24:35;95963.06;;;4.84;45.98
78168;BME280;67410;42.698;23.378;2024-01-11T12:27:02;95948.81;;;4.64;46.96
78168;BME280;67410;42.698;23.378;2024-01-11T12:29:29;95957.19;;;4.35;47.10
78168;BME280;67410;42.698;23.378;2024-01-11T12:31:59;95939.91;;;4.34;48.06
78168;BME280;67410;42.698;23.378;2024-01-11T12:34:26;95944.28;;;4.41;47.35
78168;BME280;67410;42.698;23.378;2024-01-11T12:36:53;95942.91;;;3.98;47.72
78168;BME280;67410;42.698;23.378;2024-01-11T12:39:24;95938.66;;;3.89;49.54
78168;BME280;67410;42.698;23.378;2024-01-11T12:41:50;95938.50;;;3.74;49.10
78168;BME280;67410;42.698;23.378;2024-01-11T12:44:17;95928.53;;;4.19;49.75
78168;BME280;67410;42.698;23.378;2024-01-11T12:46:47;95929.84;;;4.23;50.44
78168;BME280;67410;42.698;23.378;2024-01-11T12:49:14;95920.91;;;3.60;50.00
78168;BME280;67410;42.698;23.378;2024-01-11T12:51:41;95916.88;;;3.74;50.04
78168;BME280;67410;42.698;23.378;2024-01-11T12:54:12;95907.06;;;4.00;49.62
78168;BME280;67410;42.698;23.378;2024-01-11T12:56:45;95912.63;;;3.73;50.68
78168;BME280;67410;42.698;23.378;2024-01-11T12:59:12;95911.81;;;3.64;51.22
78168;BME280;67410;42.698;23.378;2024-01-11T13:01:38;95908.72;;;3.61;52.67